Aérodrome :
LOGIN :

S'inscrire | Disclaimer

   EN    FR    IT 

 










Légende :    VFR   VFR Marginal   IFR   IFR Intensif   IFR Très Intensif
Visi : 
Plafond : 
>= 8 km
>= 3000ft
5 à 8 km
1000 à 3000 ft
1500m à 5 km
500 à 1000 ft
800 à 1500m
200 à 500 ft
< 800m
< 200 ft
Symboles :   Orages  Brouillard  Fortes neiges  Fortes précipitations  Vent > 20 kt
SIGMETs :   Divers  Orages  Givrage  Turbulence  Onde Orograph.  Cendres Volcan.







- Altitude de l'aérodrome : 464 ft
- Code IATA : EVX
- Voir les cartes d'approche


LFOE - Evreux

DERNIER METAR :
  • 230130Z AUTO 00000KT CAVOK 11/08 Q1016 TEMPO BKN010 BECMG 22010KT

METARs EXPIRÉS :
  • 230100Z AUTO VRB01KT CAVOK 11/08 Q1016 TEMPO BKN010
  • 230030Z AUTO VRB02KT 9999 FEW038 BKN150 11/08 Q1016 TEMPO BKN010
  • 230000Z AUTO 30005KT 270V340 CAVOK 12/09 Q1016 TEMPO BKN010
  • 222330Z AUTO 30004KT CAVOK 12/09 Q1016 TEMPO BKN010 BECMG 22010KT
  • 222300Z AUTO 31003KT 270V350 CAVOK 13/10 Q1016 NOSIG

TAF TAF LFOE
Valide du 22 à 21h jusqu'au 23 à 21h UTC


222000Z 2221/2321 22010KT 9999 FEW050
BECMG 2223/2301 BKN015
TEMPO 2301/2305 BKN010
BECMG 2308/2310 SCT030
Pas de NOTAMs connus pour ce terrain.



MET'MAP, la Météo Aéronautique d'un coup d'oeil ! - Copyright ORBIFLY Décembre 2007 - Disclaimer

ORBIFLY MET'MAP TEAM :

Programmation & Développement : Alexandra Zaïnal
Conception & Développement : Baudouin d'Aumeries
Co-Programmation & Développement : Marc-Olivier Méhu
Soutien technique & logistique : Manuel Goepfert

Contact : metmap@orbifly.com




SOURCES & CREDITS :

   NOAA